In Rescue
 
Open Full Screen Window  High Contrast Mode
Wind Gusting 00 knots
04
November 20, 2019 1:59 AM EST
Present Weather: Mist
Weather Information
Wind Direction
  300 °
Wind Speed
  04 kt (5 mph)
Wind Gust
  00 kt (0 mph)
Altimeter
29.98 in
Visibility
1 SM
Temperature
01° C
34° F
Dewpoint
01° C
34° F
Humidity
100%
1hr Rain Fall
00.00 in.
24hr Rain Fall
00.00 in.
Sky Condition
Overcast @ 10,000 ft
IFR

METAR KMCD 200659Z AUTO 30004KT 1SM BR OVC100 01/01 A2998 RMK AO2 T00060006

FAA Disclaimer: The data displayed is for advisory purposes only and is not to be used for flight planning or operations.